sensor_id;sensor_type;location;lat;lon;timestamp;P1;durP1;ratioP1;P2;durP2;ratioP2
52946;SDS011;45776;40.400;17.260;2022-08-19T00:02:05;12.45;;;3.80;;
52946;SDS011;45776;40.400;17.260;2022-08-19T00:04:32;9.20;;;3.95;;
52946;SDS011;45776;40.400;17.260;2022-08-19T00:06:58;12.82;;;4.25;;
52946;SDS011;45776;40.400;17.260;2022-08-19T00:09:24;12.57;;;4.32;;
52946;SDS011;45776;40.400;17.260;2022-08-19T00:11:50;13.88;;;4.32;;
52946;SDS011;45776;40.400;17.260;2022-08-19T00:14:16;15.40;;;4.45;;
52946;SDS011;45776;40.400;17.260;2022-08-19T00:16:43;10.95;;;4.25;;
52946;SDS011;45776;40.400;17.260;2022-08-19T00:19:09;11.43;;;4.15;;
52946;SDS011;45776;40.400;17.260;2022-08-19T00:21:34;14.90;;;4.55;;
52946;SDS011;45776;40.400;17.260;2022-08-19T00:24:04;15.10;;;4.88;;
52946;SDS011;45776;40.400;17.260;2022-08-19T00:26:30;13.88;;;4.53;;
52946;SDS011;45776;40.400;17.260;2022-08-19T00:28:55;8.40;;;4.10;;
52946;SDS011;45776;40.400;17.260;2022-08-19T00:31:20;10.07;;;4.50;;
52946;SDS011;45776;40.400;17.260;2022-08-19T00:33:45;13.93;;;4.75;;
52946;SDS011;45776;40.400;17.260;2022-08-19T00:36:11;11.70;;;4.45;;
52946;SDS011;45776;40.400;17.260;2022-08-19T00:38:37;12.48;;;4.40;;
52946;SDS011;45776;40.400;17.260;2022-08-19T00:41:03;12.02;;;4.40;;
52946;SDS011;45776;40.400;17.260;2022-08-19T00:43:29;14.38;;;4.82;;
52946;SDS011;45776;40.400;17.260;2022-08-19T00:45:55;9.55;;;4.32;;
52946;SDS011;45776;40.400;17.260;2022-08-19T00:48:20;12.40;;;4.55;;
52946;SDS011;45776;40.400;17.260;2022-08-19T00:50:46;13.10;;;4.78;;
52946;SDS011;45776;40.400;17.260;2022-08-19T00:53:13;14.57;;;4.90;;
52946;SDS011;45776;40.400;17.260;2022-08-19T00:55:40;11.27;;;4.80;;
52946;SDS011;45776;40.400;17.260;2022-08-19T00:58:08;9.82;;;5.18;;
52946;SDS011;45776;40.400;17.260;2022-08-19T01:00:34;10.73;;;4.80;;
52946;SDS011;45776;40.400;17.260;2022-08-19T01:03:02;12.55;;;4.80;;
52946;SDS011;45776;40.400;17.260;2022-08-19T01:05:28;11.75;;;4.70;;
52946;SDS011;45776;40.400;17.260;2022-08-19T01:07:58;9.40;;;4.03;;
52946;SDS011;45776;40.400;17.260;2022-08-19T01:10:25;15.38;;;4.50;;
52946;SDS011;45776;40.400;17.260;2022-08-19T01:12:51;10.35;;;4.60;;
52946;SDS011;45776;40.400;17.260;2022-08-19T01:15:18;9.98;;;5.03;;
52946;SDS011;45776;40.400;17.260;2022-08-19T01:17:44;14.73;;;5.28;;
52946;SDS011;45776;40.400;17.260;2022-08-19T01:20:12;12.25;;;4.82;;
52946;SDS011;45776;40.400;17.260;2022-08-19T01:22:48;12.27;;;5.18;;
52946;SDS011;45776;40.400;17.260;2022-08-19T01:25:14;12.98;;;4.78;;
52946;SDS011;45776;40.400;17.260;2022-08-19T01:27:42;11.77;;;4.70;;
52946;SDS011;45776;40.400;17.260;2022-08-19T01:30:08;10.25;;;4.63;;
52946;SDS011;45776;40.400;17.260;2022-08-19T01:32:34;10.75;;;3.90;;
52946;SDS011;45776;40.400;17.260;2022-08-19T01:35:00;10.57;;;4.40;;
52946;SDS011;45776;40.400;17.260;2022-08-19T01:37:26;14.57;;;4.78;;
52946;SDS011;45776;40.400;17.260;2022-08-19T01:39:52;13.55;;;4.38;;
52946;SDS011;45776;40.400;17.260;2022-08-19T01:42:18;14.98;;;4.57;;
52946;SDS011;45776;40.400;17.260;2022-08-19T01:44:44;14.13;;;4.78;;
52946;SDS011;45776;40.400;17.260;2022-08-19T01:47:10;13.77;;;4.68;;
52946;SDS011;45776;40.400;17.260;2022-08-19T01:49:35;8.75;;;4.10;;
52946;SDS011;45776;40.400;17.260;2022-08-19T01:52:01;14.38;;;4.47;;
52946;SDS011;45776;40.400;17.260;2022-08-19T01:54:27;18.58;;;4.53;;
52946;SDS011;45776;40.400;17.260;2022-08-19T01:56:53;12.57;;;4.70;;
52946;SDS011;45776;40.400;17.260;2022-08-19T01:59:20;9.80;;;4.40;;
52946;SDS011;45776;40.400;17.260;2022-08-19T02:01:46;12.55;;;4.57;;
52946;SDS011;45776;40.400;17.260;2022-08-19T02:04:11;14.23;;;5.03;;
52946;SDS011;45776;40.400;17.260;2022-08-19T02:06:36;13.75;;;4.95;;
52946;SDS011;45776;40.400;17.260;2022-08-19T02:09:03;13.73;;;4.45;;
52946;SDS011;45776;40.400;17.260;2022-08-19T02:11:29;10.18;;;4.85;;
52946;SDS011;45776;40.400;17.260;2022-08-19T02:13:57;14.50;;;4.75;;
52946;SDS011;45776;40.400;17.260;2022-08-19T02:16:22;14.10;;;5.97;;
52946;SDS011;45776;40.400;17.260;2022-08-19T02:18:48;10.70;;;5.00;;
52946;SDS011;45776;40.400;17.260;2022-08-19T02:21:14;16.48;;;4.93;;
52946;SDS011;45776;40.400;17.260;2022-08-19T02:23:40;13.10;;;4.60;;
52946;SDS011;45776;40.400;17.260;2022-08-19T02:26:06;19.98;;;5.60;;
52946;SDS011;45776;40.400;17.260;2022-08-19T02:28:31;16.05;;;4.90;;
52946;SDS011;45776;40.400;17.260;2022-08-19T02:30:57;15.32;;;5.13;;
52946;SDS011;45776;40.400;17.260;2022-08-19T02:33:25;14.52;;;5.05;;
52946;SDS011;45776;40.400;17.260;2022-08-19T02:35:51;12.48;;;4.80;;
52946;SDS011;45776;40.400;17.260;2022-08-19T02:38:16;11.02;;;4.60;;
52946;SDS011;45776;40.400;17.260;2022-08-19T02:40:51;19.65;;;4.78;;
52946;SDS011;45776;40.400;17.260;2022-08-19T02:43:17;9.25;;;4.47;;
52946;SDS011;45776;40.400;17.260;2022-08-19T02:45:42;12.40;;;4.70;;
52946;SDS011;45776;40.400;17.260;2022-08-19T02:48:08;9.80;;;5.03;;
52946;SDS011;45776;40.400;17.260;2022-08-19T02:50:37;17.40;;;5.88;;
52946;SDS011;45776;40.400;17.260;2022-08-19T02:53:02;21.40;;;4.82;;
52946;SDS011;45776;40.400;17.260;2022-08-19T02:55:27;14.02;;;4.65;;
52946;SDS011;45776;40.400;17.260;2022-08-19T02:57:53;12.30;;;5.15;;
52946;SDS011;45776;40.400;17.260;2022-08-19T03:00:18;15.98;;;5.68;;
52946;SDS011;45776;40.400;17.260;2022-08-19T03:02:43;10.05;;;4.70;;
52946;SDS011;45776;40.400;17.260;2022-08-19T03:05:09;14.05;;;4.85;;
52946;SDS011;45776;40.400;17.260;2022-08-19T03:07:35;10.35;;;4.43;;
52946;SDS011;45776;40.400;17.260;2022-08-19T03:10:00;14.75;;;4.90;;
52946;SDS011;45776;40.400;17.260;2022-08-19T03:12:26;14.52;;;5.07;;
52946;SDS011;45776;40.400;17.260;2022-08-19T03:14:51;15.90;;;4.47;;
52946;SDS011;45776;40.400;17.260;2022-08-19T03:17:17;14.90;;;5.10;;
52946;SDS011;45776;40.400;17.260;2022-08-19T03:19:42;18.10;;;4.40;;
52946;SDS011;45776;40.400;17.260;2022-08-19T03:22:08;13.07;;;4.88;;
52946;SDS011;45776;40.400;17.260;2022-08-19T03:24:33;16.30;;;5.25;;
52946;SDS011;45776;40.400;17.260;2022-08-19T03:26:59;14.65;;;5.32;;
52946;SDS011;45776;40.400;17.260;2022-08-19T03:29:25;11.20;;;4.95;;
52946;SDS011;45776;40.400;17.260;2022-08-19T03:31:51;14.05;;;4.88;;
52946;SDS011;45776;40.400;17.260;2022-08-19T03:34:26;17.10;;;5.20;;
52946;SDS011;45776;40.400;17.260;2022-08-19T03:36:53;17.60;;;5.50;;
52946;SDS011;45776;40.400;17.260;2022-08-19T03:39:19;15.50;;;4.97;;
52946;SDS011;45776;40.400;17.260;2022-08-19T03:41:45;15.23;;;5.00;;
52946;SDS011;45776;40.400;17.260;2022-08-19T03:44:15;15.20;;;5.40;;
52946;SDS011;45776;40.400;17.260;2022-08-19T03:46:40;14.30;;;5.30;;
52946;SDS011;45776;40.400;17.260;2022-08-19T03:49:06;14.05;;;5.18;;
52946;SDS011;45776;40.400;17.260;2022-08-19T03:51:36;12.98;;;4.95;;
52946;SDS011;45776;40.400;17.260;2022-08-19T03:54:05;16.55;;;5.25;;
52946;SDS011;45776;40.400;17.260;2022-08-19T03:56:32;11.38;;;5.10;;
52946;SDS011;45776;40.400;17.260;2022-08-19T03:58:58;13.00;;;5.10;;
52946;SDS011;45776;40.400;17.260;2022-08-19T04:01:26;13.82;;;5.03;;
52946;SDS011;45776;40.400;17.260;2022-08-19T04:03:52;16.77;;;5.38;;
52946;SDS011;45776;40.400;17.260;2022-08-19T04:06:22;18.90;;;4.97;;
52946;SDS011;45776;40.400;17.260;2022-08-19T04:08:48;12.43;;;5.68;;
52946;SDS011;45776;40.400;17.260;2022-08-19T04:11:16;10.88;;;4.95;;
52946;SDS011;45776;40.400;17.260;2022-08-19T04:13:42;18.88;;;4.93;;
52946;SDS011;45776;40.400;17.260;2022-08-19T04:16:09;15.88;;;5.53;;
52946;SDS011;45776;40.400;17.260;2022-08-19T04:18:35;15.27;;;4.93;;
52946;SDS011;45776;40.400;17.260;2022-08-19T04:21:01;14.52;;;5.75;;
52946;SDS011;45776;40.400;17.260;2022-08-19T04:23:26;15.05;;;5.93;;
52946;SDS011;45776;40.400;17.260;2022-08-19T04:25:53;9.65;;;4.72;;
52946;SDS011;45776;40.400;17.260;2022-08-19T04:28:18;18.23;;;5.72;;
52946;SDS011;45776;40.400;17.260;2022-08-19T04:30:50;15.90;;;5.00;;
52946;SDS011;45776;40.400;17.260;2022-08-19T04:33:20;16.92;;;4.63;;
52946;SDS011;45776;40.400;17.260;2022-08-19T04:35:47;15.18;;;5.00;;
52946;SDS011;45776;40.400;17.260;2022-08-19T04:38:13;12.88;;;4.75;;
52946;SDS011;45776;40.400;17.260;2022-08-19T04:40:39;12.00;;;4.78;;
52946;SDS011;45776;40.400;17.260;2022-08-19T04:43:24;13.90;;;4.97;;
52946;SDS011;45776;40.400;17.260;2022-08-19T04:45:49;12.95;;;4.70;;
52946;SDS011;45776;40.400;17.260;2022-08-19T04:48:15;15.48;;;4.85;;
52946;SDS011;45776;40.400;17.260;2022-08-19T04:50:41;17.10;;;5.47;;
52946;SDS011;45776;40.400;17.260;2022-08-19T04:53:07;24.35;;;5.93;;
52946;SDS011;45776;40.400;17.260;2022-08-19T04:55:32;22.25;;;5.82;;
52946;SDS011;45776;40.400;17.260;2022-08-19T04:57:58;14.77;;;6.22;;
52946;SDS011;45776;40.400;17.260;2022-08-19T05:00:24;14.43;;;6.25;;
52946;SDS011;45776;40.400;17.260;2022-08-19T05:02:49;17.67;;;6.88;;
52946;SDS011;45776;40.400;17.260;2022-08-19T05:05:14;14.82;;;6.13;;
52946;SDS011;45776;40.400;17.260;2022-08-19T05:07:40;18.55;;;6.40;;
52946;SDS011;45776;40.400;17.260;2022-08-19T05:10:06;22.55;;;5.88;;
52946;SDS011;45776;40.400;17.260;2022-08-19T05:12:31;20.13;;;6.85;;
52946;SDS011;45776;40.400;17.260;2022-08-19T05:14:57;18.42;;;5.70;;
52946;SDS011;45776;40.400;17.260;2022-08-19T05:17:23;16.85;;;5.70;;
52946;SDS011;45776;40.400;17.260;2022-08-19T05:19:48;15.93;;;4.97;;
52946;SDS011;45776;40.400;17.260;2022-08-19T05:22:32;19.13;;;5.25;;
52946;SDS011;45776;40.400;17.260;2022-08-19T05:24:58;19.15;;;5.82;;
52946;SDS011;45776;40.400;17.260;2022-08-19T05:27:23;18.95;;;6.30;;
52946;SDS011;45776;40.400;17.260;2022-08-19T05:29:49;19.77;;;6.38;;
52946;SDS011;45776;40.400;17.260;2022-08-19T05:32:14;19.33;;;6.20;;
52946;SDS011;45776;40.400;17.260;2022-08-19T05:34:39;20.17;;;6.80;;
52946;SDS011;45776;40.400;17.260;2022-08-19T05:37:05;22.27;;;6.63;;
52946;SDS011;45776;40.400;17.260;2022-08-19T05:39:31;24.40;;;7.05;;
52946;SDS011;45776;40.400;17.260;2022-08-19T05:42:01;19.98;;;6.72;;
52946;SDS011;45776;40.400;17.260;2022-08-19T05:44:28;24.13;;;7.80;;
52946;SDS011;45776;40.400;17.260;2022-08-19T05:46:56;21.73;;;7.53;;
52946;SDS011;45776;40.400;17.260;2022-08-19T05:49:22;22.38;;;7.80;;
52946;SDS011;45776;40.400;17.260;2022-08-19T05:51:47;22.85;;;7.22;;
52946;SDS011;45776;40.400;17.260;2022-08-19T05:54:13;20.92;;;7.30;;
52946;SDS011;45776;40.400;17.260;2022-08-19T05:56:39;20.05;;;7.15;;
52946;SDS011;45776;40.400;17.260;2022-08-19T05:59:05;18.98;;;7.93;;
52946;SDS011;45776;40.400;17.260;2022-08-19T06:01:33;20.67;;;6.82;;
52946;SDS011;45776;40.400;17.260;2022-08-19T06:03:59;26.65;;;7.80;;
52946;SDS011;45776;40.400;17.260;2022-08-19T06:06:24;23.75;;;7.20;;
52946;SDS011;45776;40.400;17.260;2022-08-19T06:08:50;19.65;;;7.47;;
52946;SDS011;45776;40.400;17.260;2022-08-19T06:11:23;26.63;;;6.80;;
52946;SDS011;45776;40.400;17.260;2022-08-19T06:13:49;20.20;;;7.10;;
52946;SDS011;45776;40.400;17.260;2022-08-19T06:16:16;23.98;;;7.40;;
52946;SDS011;45776;40.400;17.260;2022-08-19T06:18:51;20.55;;;7.20;;
52946;SDS011;45776;40.400;17.260;2022-08-19T06:21:17;22.13;;;7.55;;
52946;SDS011;45776;40.400;17.260;2022-08-19T06:23:43;22.58;;;7.22;;
52946;SDS011;45776;40.400;17.260;2022-08-19T06:26:11;19.00;;;7.22;;
52946;SDS011;45776;40.400;17.260;2022-08-19T06:28:36;18.83;;;6.38;;
52946;SDS011;45776;40.400;17.260;2022-08-19T06:31:05;19.33;;;6.05;;
52946;SDS011;45776;40.400;17.260;2022-08-19T06:33:31;19.45;;;6.32;;
52946;SDS011;45776;40.400;17.260;2022-08-19T06:35:56;20.55;;;7.10;;
52946;SDS011;45776;40.400;17.260;2022-08-19T06:38:21;21.73;;;6.70;;
52946;SDS011;45776;40.400;17.260;2022-08-19T06:40:47;21.77;;;6.97;;
52946;SDS011;45776;40.400;17.260;2022-08-19T06:43:12;18.50;;;6.25;;
52946;SDS011;45776;40.400;17.260;2022-08-19T06:45:40;15.73;;;5.90;;
52946;SDS011;45776;40.400;17.260;2022-08-19T06:48:06;15.27;;;5.80;;
52946;SDS011;45776;40.400;17.260;2022-08-19T06:50:32;20.92;;;6.78;;
52946;SDS011;45776;40.400;17.260;2022-08-19T06:52:57;24.38;;;6.50;;
52946;SDS011;45776;40.400;17.260;2022-08-19T06:55:22;18.25;;;6.65;;
52946;SDS011;45776;40.400;17.260;2022-08-19T06:57:48;22.83;;;6.75;;
52946;SDS011;45776;40.400;17.260;2022-08-19T07:00:18;15.30;;;5.80;;
52946;SDS011;45776;40.400;17.260;2022-08-19T07:02:46;23.67;;;7.82;;
52946;SDS011;45776;40.400;17.260;2022-08-19T07:05:11;23.35;;;6.82;;
52946;SDS011;45776;40.400;17.260;2022-08-19T07:07:37;23.10;;;6.57;;
52946;SDS011;45776;40.400;17.260;2022-08-19T07:10:02;17.17;;;5.70;;
52946;SDS011;45776;40.400;17.260;2022-08-19T07:12:29;17.77;;;6.18;;
52946;SDS011;45776;40.400;17.260;2022-08-19T07:14:57;21.45;;;6.20;;
52946;SDS011;45776;40.400;17.260;2022-08-19T07:17:23;15.98;;;5.43;;
52946;SDS011;45776;40.400;17.260;2022-08-19T07:19:48;14.10;;;5.50;;
52946;SDS011;45776;40.400;17.260;2022-08-19T07:22:15;16.08;;;5.65;;
52946;SDS011;45776;40.400;17.260;2022-08-19T07:24:40;17.75;;;6.15;;
52946;SDS011;45776;40.400;17.260;2022-08-19T07:27:06;16.77;;;6.07;;
52946;SDS011;45776;40.400;17.260;2022-08-19T07:29:32;31.25;;;5.82;;
52946;SDS011;45776;40.400;17.260;2022-08-19T07:31:58;20.48;;;5.18;;
52946;SDS011;45776;40.400;17.260;2022-08-19T07:34:24;20.95;;;6.43;;
52946;SDS011;45776;40.400;17.260;2022-08-19T07:36:50;23.08;;;6.00;;
52946;SDS011;45776;40.400;17.260;2022-08-19T07:39:26;20.77;;;5.35;;
52946;SDS011;45776;40.400;17.260;2022-08-19T07:41:51;17.73;;;5.38;;
52946;SDS011;45776;40.400;17.260;2022-08-19T07:44:17;19.10;;;6.32;;
52946;SDS011;45776;40.400;17.260;2022-08-19T07:46:44;19.52;;;6.70;;
52946;SDS011;45776;40.400;17.260;2022-08-19T07:49:11;19.95;;;6.07;;
52946;SDS011;45776;40.400;17.260;2022-08-19T07:51:42;18.05;;;6.20;;
52946;SDS011;45776;40.400;17.260;2022-08-19T07:54:08;23.23;;;6.60;;
52946;SDS011;45776;40.400;17.260;2022-08-19T07:56:33;19.33;;;6.55;;
52946;SDS011;45776;40.400;17.260;2022-08-19T07:58:58;21.33;;;5.85;;
52946;SDS011;45776;40.400;17.260;2022-08-19T08:01:24;19.83;;;7.03;;
52946;SDS011;45776;40.400;17.260;2022-08-19T08:03:51;19.00;;;6.30;;
52946;SDS011;45776;40.400;17.260;2022-08-19T08:06:35;20.15;;;6.32;;
52946;SDS011;45776;40.400;17.260;2022-08-19T08:09:22;19.13;;;6.82;;
52946;SDS011;45776;40.400;17.260;2022-08-19T08:14:15;16.10;;;6.45;;
52946;SDS011;45776;40.400;17.260;2022-08-19T08:16:41;17.88;;;6.57;;
52946;SDS011;45776;40.400;17.260;2022-08-19T08:19:09;17.63;;;5.63;;
52946;SDS011;45776;40.400;17.260;2022-08-19T08:21:34;18.30;;;6.30;;
52946;SDS011;45776;40.400;17.260;2022-08-19T08:24:00;16.65;;;6.60;;
52946;SDS011;45776;40.400;17.260;2022-08-19T08:26:25;22.75;;;6.00;;
52946;SDS011;45776;40.400;17.260;2022-08-19T08:28:51;19.95;;;5.75;;
52946;SDS011;45776;40.400;17.260;2022-08-19T08:31:31;19.83;;;6.15;;
52946;SDS011;45776;40.400;17.260;2022-08-19T08:33:58;16.65;;;5.97;;
52946;SDS011;45776;40.400;17.260;2022-08-19T08:36:24;19.85;;;6.30;;
52946;SDS011;45776;40.400;17.260;2022-08-19T08:38:50;15.65;;;5.85;;
52946;SDS011;45776;40.400;17.260;2022-08-19T08:44:03;14.30;;;5.70;;
52946;SDS011;45776;40.400;17.260;2022-08-19T08:46:39;18.70;;;5.95;;
52946;SDS011;45776;40.400;17.260;2022-08-19T08:52:05;11.95;;;5.35;;
52946;SDS011;45776;40.400;17.260;2022-08-19T08:54:41;12.07;;;5.40;;
52946;SDS011;45776;40.400;17.260;2022-08-19T08:57:09;17.65;;;5.25;;
52946;SDS011;45776;40.400;17.260;2022-08-19T08:59:36;16.25;;;4.85;;
52946;SDS011;45776;40.400;17.260;2022-08-19T09:02:02;14.70;;;4.97;;
52946;SDS011;45776;40.400;17.260;2022-08-19T09:04:28;15.25;;;4.75;;
52946;SDS011;45776;40.400;17.260;2022-08-19T09:15:05;19.90;;;5.60;;
52946;SDS011;45776;40.400;17.260;2022-08-19T09:17:32;12.15;;;5.40;;
52946;SDS011;45776;40.400;17.260;2022-08-19T09:22:34;13.30;;;5.50;;
52946;SDS011;45776;40.400;17.260;2022-08-19T09:25:00;16.30;;;5.10;;
52946;SDS011;45776;40.400;17.260;2022-08-19T09:27:26;14.00;;;4.68;;
52946;SDS011;45776;40.400;17.260;2022-08-19T09:29:52;12.82;;;4.78;;
52946;SDS011;45776;40.400;17.260;2022-08-19T09:32:18;14.18;;;5.20;;
